Time;durP1;ratioP1;P1;durP2;ratioP2;P2;SDS_P1;SDS_P2;PMS_P1;PMS_P2;Temp;Humidity;BMP_temperature;BMP_pressure;BME280_temperature;BME280_humidity;BME280_pressure;Samples;Min_cycle;Max_cycle;Signal;HPM_P1;HPM_P2
2021/04/30 00:01:17;;;;;;;4.33;3.30;;;;;;;7.79;66.18;96204.75;5065840;28;20197;-61
2021/04/30 00:03:42;;;;;;;4.13;3.10;;;;;;;7.83;66.11;96198.06;5059357;28;20202;-62
2021/04/30 00:06:08;;;;;;;3.30;3.00;;;;;;;7.52;66.68;96206.91;5061863;28;20528;-61
2021/04/30 00:08:33;;;;;;;3.17;2.87;;;;;;;7.56;66.42;96202.06;5062452;28;20174;-62
2021/04/30 00:10:59;;;;;;;5.37;2.90;;;;;;;7.68;65.85;96212.53;5055052;28;20175;-62
2021/04/30 00:13:25;;;;;;;3.50;3.20;;;;;;;7.78;65.29;96203.16;5070647;28;20204;-62
2021/04/30 00:15:50;;;;;;;4.00;3.57;;;;;;;7.97;64.75;96198.63;5071068;28;20186;-62
2021/04/30 00:18:15;;;;;;;3.50;3.20;;;;;;;8.09;64.32;96191.63;5045148;28;20196;-60
2021/04/30 00:20:51;;;;;;;3.77;3.10;;;;;;;7.98;63.96;96192.41;5062246;28;20201;-60
2021/04/30 00:23:17;;;;;;;4.23;3.20;;;;;;;7.85;64.57;96195.22;5066984;28;20673;-59
2021/04/30 00:25:45;;;;;;;3.30;3.00;;;;;;;7.87;64.50;96190.56;5060617;28;20201;-61
2021/04/30 00:28:11;;;;;;;3.50;3.20;;;;;;;7.92;64.52;96194.09;5072095;28;20178;-61
2021/04/30 00:30:38;;;;;;;3.83;3.50;;;;;;;7.77;64.78;96203.38;5056881;28;20177;-61
2021/04/30 00:33:03;;;;;;;3.83;3.50;;;;;;;7.92;64.54;96211.56;5067444;28;20288;-62
2021/04/30 00:35:29;;;;;;;3.13;2.93;;;;;;;7.93;64.04;96211.34;5070244;28;20270;-63
2021/04/30 00:37:54;;;;;;;3.37;3.07;;;;;;;8.01;64.35;96210.25;5055526;28;20178;-63
2021/04/30 00:40:20;;;;;;;4.10;3.33;;;;;;;8.07;63.93;96209.34;5058357;28;20708;-62
2021/04/30 00:42:45;;;;;;;3.70;3.40;;;;;;;8.05;63.79;96213.19;5059604;28;20205;-61
2021/04/30 00:45:16;;;;;;;3.90;3.43;;;;;;;8.18;63.66;96219.00;5067260;28;20276;-61
2021/04/30 00:47:42;;;;;;;4.17;3.40;;;;;;;8.21;63.23;96204.69;5071495;28;20291;-63
2021/04/30 00:50:10;;;;;;;5.23;3.50;;;;;;;8.07;64.09;96211.97;5064342;28;20173;-61
2021/04/30 00:52:36;;;;;;;5.17;3.23;;;;;;;8.09;63.96;96214.31;5059921;28;20208;-61
2021/04/30 00:55:08;;;;;;;3.70;3.40;;;;;;;7.87;63.83;96217.47;5071925;28;20229;-61
2021/04/30 00:57:35;;;;;;;4.53;3.70;;;;;;;7.89;63.99;96209.41;5052402;28;20229;-63
2021/04/30 01:00:01;;;;;;;3.73;3.33;;;;;;;7.85;63.69;96214.28;5071976;28;20194;-61
2021/04/30 01:02:27;;;;;;;4.17;3.40;;;;;;;7.86;63.84;96210.63;5073991;28;20617;-63
2021/04/30 01:04:53;;;;;;;3.90;3.50;;;;;;;7.87;63.85;96214.03;5074259;28;20196;-62
2021/04/30 01:07:19;;;;;;;4.33;3.87;;;;;;;7.96;63.52;96209.31;5074450;28;20173;-61
2021/04/30 01:09:44;;;;;;;3.70;3.40;;;;;;;7.90;63.30;96226.66;5062273;28;20260;-60
2021/04/30 01:12:11;;;;;;;5.80;3.73;;;;;;;7.97;63.10;96223.97;5074341;28;20636;-62
2021/04/30 01:14:36;;;;;;;3.90;3.60;;;;;;;8.03;62.91;96217.81;5072915;28;20189;-62
2021/04/30 01:17:02;;;;;;;4.83;3.83;;;;;;;7.93;62.65;96215.75;5073693;28;20173;-62
2021/04/30 01:19:30;;;;;;;3.43;3.13;;;;;;;7.88;63.28;96219.06;5073395;28;20534;-62
2021/04/30 01:21:57;;;;;;;4.10;3.70;;;;;;;7.79;63.56;96222.22;5073924;28;20607;-61
2021/04/30 01:24:23;;;;;;;5.33;4.00;;;;;;;7.76;63.28;96228.66;5074072;28;20258;-60
2021/04/30 01:26:51;;;;;;;4.13;3.73;;;;;;;7.82;63.25;96227.78;5073640;28;20262;-61
2021/04/30 01:29:16;;;;;;;4.87;3.90;;;;;;;7.78;62.91;96226.63;5073928;28;20173;-63
2021/04/30 01:31:43;;;;;;;4.13;3.60;;;;;;;8.01;62.34;96233.72;5072844;28;20189;-61
2021/04/30 01:34:10;;;;;;;4.23;3.67;;;;;;;8.04;62.09;96237.69;5072057;28;20204;-61
2021/04/30 01:36:37;;;;;;;3.97;3.57;;;;;;;8.02;62.32;96226.69;5072541;28;20227;-61
2021/04/30 01:39:08;;;;;;;4.73;3.80;;;;;;;8.04;61.84;96232.47;5073238;28;20189;-61
2021/04/30 01:41:36;;;;;;;4.93;3.63;;;;;;;8.14;61.45;96225.69;5072237;28;20185;-61
2021/04/30 01:44:06;;;;;;;5.03;3.87;;;;;;;7.99;61.01;96209.66;5072840;28;20209;-61
2021/04/30 01:46:32;;;;;;;5.00;3.87;;;;;;;8.00;61.18;96215.66;5057268;28;20188;-61
2021/04/30 01:48:57;;;;;;;4.93;3.63;;;;;;;7.81;61.73;96217.53;5072979;28;20657;-61
2021/04/30 01:51:23;;;;;;;4.33;3.93;;;;;;;7.86;61.66;96225.50;5072828;28;20611;-61
2021/04/30 01:53:48;;;;;;;4.80;3.63;;;;;;;8.00;61.46;96226.09;5072172;28;20216;-61
2021/04/30 01:56:15;;;;;;;3.63;3.33;;;;;;;8.07;60.96;96219.78;5080410;28;20227;-61
2021/04/30 01:58:41;;;;;;;4.27;3.70;;;;;;;8.17;60.77;96221.84;5112366;28;20249;-61
2021/04/30 02:01:08;;;;;;;4.27;3.87;;;;;;;8.13;60.87;96233.75;5113266;28;20195;-61
2021/04/30 02:03:34;;;;;;;4.17;3.77;;;;;;;8.20;60.60;96234.41;5112250;27;20350;-61
2021/04/30 02:05:59;;;;;;;5.77;3.90;;;;;;;8.28;60.51;96231.50;5113823;28;20270;-61
2021/04/30 02:08:25;;;;;;;4.23;3.70;;;;;;;8.40;59.92;96229.72;5113417;28;20184;-61
2021/04/30 02:10:52;;;;;;;4.20;3.80;;;;;;;8.38;59.94;96231.75;5113069;28;20689;-61
2021/04/30 02:13:19;;;;;;;4.27;3.87;;;;;;;8.28;60.45;96240.13;5113345;28;20207;-61
2021/04/30 02:15:46;;;;;;;4.63;3.97;;;;;;;8.31;59.98;96242.31;5112766;28;20176;-61
2021/04/30 02:18:12;;;;;;;4.83;4.00;;;;;;;8.16;61.08;96236.69;5113133;28;20203;-60
2021/04/30 02:20:39;;;;;;;4.30;3.87;;;;;;;8.16;60.66;96239.31;5112830;28;20195;-61
2021/04/30 02:23:05;;;;;;;7.60;4.17;;;;;;;8.31;60.10;96244.91;5113426;28;20207;-61
2021/04/30 02:25:31;;;;;;;5.03;4.17;;;;;;;8.29;60.83;96252.16;5112502;28;20180;-61
2021/04/30 02:27:58;;;;;;;5.23;4.17;;;;;;;8.29;63.70;96249.56;5112797;28;20640;-61
2021/04/30 02:30:25;;;;;;;4.97;4.30;;;;;;;8.14;67.97;96246.56;5113247;28;20571;-60
2021/04/30 02:32:52;;;;;;;4.23;3.83;;;;;;;7.87;70.40;96246.16;5112830;28;20249;-59
2021/04/30 02:35:23;;;;;;;4.60;4.20;;;;;;;7.59;68.92;96243.34;5112875;28;20176;-61
2021/04/30 02:37:50;;;;;;;4.77;4.33;;;;;;;7.34;70.01;96242.66;5109418;28;20180;-61
2021/04/30 02:40:17;;;;;;;8.73;4.50;;;;;;;7.41;70.10;96235.56;5112832;28;20196;-61
2021/04/30 02:42:44;;;;;;;5.00;4.50;;;;;;;7.42;71.89;96234.53;5111235;28;20204;-61
2021/04/30 02:45:12;;;;;;;5.60;4.67;;;;;;;7.17;69.60;96223.41;5112220;28;20176;-61
2021/04/30 02:47:39;;;;;;;5.10;4.40;;;;;;;7.27;71.16;96224.50;5111847;28;20176;-61
2021/04/30 02:50:07;;;;;;;6.37;4.77;;;;;;;7.27;68.72;96218.47;5112396;28;20180;-61
2021/04/30 02:52:33;;;;;;;5.07;4.47;;;;;;;7.00;70.04;96207.59;5111718;28;20200;-60
2021/04/30 02:54:59;;;;;;;5.80;3.93;;;;;;;6.76;69.79;96209.22;5112391;28;20613;-61
2021/04/30 02:57:25;;;;;;;7.80;5.23;;;;;;;6.93;68.77;96218.06;5095188;28;20246;-61
2021/04/30 02:59:51;;;;;;;5.60;4.80;;;;;;;6.69;68.58;96208.50;5090557;28;20189;-61
2021/04/30 03:02:18;;;;;;;7.90;4.43;;;;;;;6.63;69.36;96207.56;5091835;28;20169;-61
2021/04/30 03:04:44;;;;;;;5.50;4.90;;;;;;;6.32;70.62;96212.06;5091402;28;20169;-61
2021/04/30 03:07:09;;;;;;;6.87;4.87;;;;;;;6.53;69.43;96214.28;5092052;28;20721;-61
2021/04/30 03:09:35;;;;;;;7.30;4.97;;;;;;;6.55;69.55;96215.66;5091070;28;20247;-61
2021/04/30 03:12:01;;;;;;;6.90;5.07;;;;;;;6.37;70.85;96207.81;5091428;28;20251;-61
2021/04/30 03:14:27;;;;;;;7.33;5.10;;;;;;;6.35;71.26;96209.84;5091510;28;20199;-61
2021/04/30 03:16:52;;;;;;;6.47;5.37;;;;;;;6.27;72.95;96223.13;5091056;28;20653;-61
2021/04/30 03:19:18;;;;;;;6.50;5.17;;;;;;;6.30;72.63;96220.06;5091734;28;20184;-61
2021/04/30 03:21:43;;;;;;;8.07;5.20;;;;;;;6.41;73.56;96221.22;5090749;28;20204;-60
2021/04/30 03:24:09;;;;;;;6.97;5.20;;;;;;;6.37;73.60;96231.25;5091521;28;20672;-61
2021/04/30 03:26:35;;;;;;;4.93;4.43;;;;;;;6.52;73.62;96221.28;5090963;28;20177;-61
2021/04/30 03:29:01;;;;;;;7.47;4.90;;;;;;;6.59;73.39;96216.81;5091698;28;20187;-61
2021/04/30 03:31:27;;;;;;;6.17;5.07;;;;;;;6.67;73.91;96215.75;5091532;28;20172;-61
2021/04/30 03:33:53;;;;;;;5.47;4.73;;;;;;;6.51;73.18;96216.31;5069506;28;20258;-61
2021/04/30 03:36:20;;;;;;;6.57;4.80;;;;;;;6.54;73.20;96218.47;5091460;28;20161;-61
2021/04/30 03:38:46;;;;;;;6.67;4.97;;;;;;;6.60;73.45;96215.81;5090770;28;20656;-61
2021/04/30 03:41:13;;;;;;;5.70;5.10;;;;;;;6.50;71.98;96207.69;5091223;28;20192;-61
2021/04/30 03:43:38;;;;;;;8.30;5.67;;;;;;;6.68;72.35;96205.13;5090588;28;20204;-60
2021/04/30 03:46:03;;;;;;;9.10;5.57;;;;;;;6.75;71.33;96205.03;5091356;28;20208;-61
2021/04/30 03:48:31;;;;;;;6.83;5.20;;;;;;;6.80;72.17;96210.38;5091111;28;20189;-61
2021/04/30 03:50:56;;;;;;;6.37;5.43;;;;;;;6.75;71.45;96212.84;5070298;28;20170;-61
2021/04/30 03:53:22;;;;;;;7.33;5.20;;;;;;;6.74;70.78;96216.50;5090976;28;20257;-61
2021/04/30 03:55:48;;;;;;;6.17;5.40;;;;;;;6.79;70.97;96205.41;5087215;28;20181;-62
2021/04/30 03:58:13;;;;;;;7.00;5.60;;;;;;;6.74;70.63;96207.88;5064338;28;20181;-61
2021/04/30 04:00:39;;;;;;;7.40;5.60;;;;;;;6.64;71.58;96195.34;5061888;28;20670;-62
2021/04/30 04:03:04;;;;;;;6.07;5.47;;;;;;;6.50;71.36;96193.88;5068812;28;20201;-62
2021/04/30 04:05:32;;;;;;;6.80;5.70;;;;;;;6.50;72.83;96189.47;5062294;28;20178;-61
2021/04/30 04:07:58;;;;;;;7.57;5.70;;;;;;;6.53;72.49;96198.66;5063556;28;20543;-62
2021/04/30 04:10:23;;;;;;;7.20;5.67;;;;;;;6.51;72.44;96198.09;5074775;28;20173;-59
2021/04/30 04:12:49;;;;;;;8.23;5.97;;;;;;;6.42;72.39;96204.56;5068682;28;20208;-62
2021/04/30 04:15:16;;;;;;;8.00;6.00;;;;;;;6.22;72.74;96205.56;5058732;28;20183;-56
2021/04/30 04:17:42;;;;;;;6.90;5.70;;;;;;;6.38;73.54;96206.81;5065256;28;20173;-56
2021/04/30 04:20:08;;;;;;;9.63;6.13;;;;;;;6.43;74.49;96206.16;5065977;28;20181;-58
2021/04/30 04:22:33;;;;;;;6.87;5.73;;;;;;;6.49;74.73;96200.09;5065116;28;20209;-57
2021/04/30 04:24:59;;;;;;;7.67;6.20;;;;;;;6.64;73.21;96205.75;5066272;28;20269;-62
2021/04/30 04:27:25;;;;;;;6.30;5.30;;;;;;;6.66;71.32;96204.53;5066937;28;20189;-62
2021/04/30 04:29:50;;;;;;;7.77;5.87;;;;;;;6.59;70.93;96205.59;5057997;28;20719;-59
2021/04/30 04:32:16;;;;;;;7.80;6.10;;;;;;;6.54;71.22;96201.03;5065215;28;20177;-60
2021/04/30 04:34:42;;;;;;;8.83;6.40;;;;;;;6.50;71.01;96205.09;5068822;28;20176;-59
2021/04/30 04:37:07;;;;;;;7.27;6.13;;;;;;;6.43;70.99;96206.97;5064626;28;20287;-62
2021/04/30 04:39:34;;;;;;;7.77;5.80;;;;;;;6.46;70.89;96216.97;5061159;28;20173;-62
2021/04/30 04:42:02;;;;;;;8.63;6.13;;;;;;;6.51;70.91;96217.13;5064025;28;20212;-59
2021/04/30 04:44:28;;;;;;;6.70;5.80;;;;;;;6.49;70.63;96216.53;5054554;28;20205;-59
2021/04/30 04:46:54;;;;;;;8.87;5.77;;;;;;;6.53;70.31;96229.88;5055861;28;20225;-62
2021/04/30 04:49:19;;;;;;;7.90;6.47;;;;;;;6.61;69.70;96224.41;5065836;28;20219;-62
2021/04/30 04:51:44;;;;;;;6.60;5.80;;;;;;;6.62;69.71;96229.41;5066498;28;20166;-62
2021/04/30 04:54:10;;;;;;;7.70;5.97;;;;;;;6.66;69.83;96227.97;5062385;28;20674;-62
2021/04/30 04:56:36;;;;;;;7.73;5.10;;;;;;;6.78;68.55;96233.25;5072865;28;20231;-62
2021/04/30 04:59:02;;;;;;;7.97;5.37;;;;;;;6.83;68.34;96233.41;5093440;28;20216;-62
2021/04/30 05:01:28;;;;;;;6.83;5.27;;;;;;;6.70;68.34;96241.34;5094103;28;20185;-60
2021/04/30 05:03:54;;;;;;;6.10;4.97;;;;;;;6.90;68.07;96241.16;5093255;28;20201;-60
2021/04/30 05:06:20;;;;;;;6.93;5.87;;;;;;;6.83;68.01;96249.03;5093603;28;20177;-61
2021/04/30 05:08:45;;;;;;;7.43;5.77;;;;;;;6.83;68.10;96251.66;5093315;28;20226;-62
2021/04/30 05:11:11;;;;;;;7.43;5.87;;;;;;;6.75;68.45;96246.69;5093873;28;20180;-61
2021/04/30 05:13:36;;;;;;;7.10;5.90;;;;;;;6.86;68.17;96248.59;5093165;28;20223;-61
2021/04/30 05:16:03;;;;;;;6.60;5.60;;;;;;;6.91;68.26;96243.53;5093821;28;20172;-61
2021/04/30 05:18:30;;;;;;;8.77;5.90;;;;;;;6.97;67.51;96240.06;5093825;28;20176;-61
2021/04/30 05:20:56;;;;;;;5.97;5.17;;;;;;;6.65;68.79;96246.41;5093049;28;20193;-60
2021/04/30 05:23:22;;;;;;;6.87;5.33;;;;;;;6.86;68.26;96235.56;5093755;28;20269;-61
2021/04/30 05:25:53;;;;;;;7.30;5.73;;;;;;;6.89;69.05;96237.75;5093218;28;20196;-61
2021/04/30 05:28:19;;;;;;;8.47;5.90;;;;;;;7.01;68.34;96251.66;5093791;28;20548;-61
2021/04/30 05:30:44;;;;;;;9.43;6.07;;;;;;;7.05;68.66;96239.78;5071901;28;20706;-65
2021/04/30 05:33:10;;;;;;;7.20;5.10;;;;;;;6.98;69.23;96244.25;5094464;28;20200;-65
2021/04/30 05:35:37;;;;;;;5.20;4.70;;;;;;;6.77;70.66;96242.09;5094750;28;20168;-65
2021/04/30 05:38:04;;;;;;;5.80;5.20;;;;;;;6.78;69.61;96238.47;5094361;28;20181;-62
2021/04/30 05:40:30;;;;;;;8.30;5.87;;;;;;;6.67;69.07;96232.19;5074439;28;20197;-63
2021/04/30 05:42:55;;;;;;;7.77;5.57;;;;;;;6.92;68.69;96237.31;5093132;28;20215;-63
2021/04/30 05:45:21;;;;;;;7.77;5.77;;;;;;;6.88;68.39;96230.94;5093990;28;20633;-63
2021/04/30 05:47:46;;;;;;;7.67;6.20;;;;;;;6.78;68.02;96232.47;5093558;28;20184;-64
2021/04/30 05:50:12;;;;;;;6.97;6.00;;;;;;;6.66;67.90;96235.78;5093471;28;20205;-62
2021/04/30 05:52:38;;;;;;;7.70;6.00;;;;;;;6.77;67.62;96230.88;5092569;28;20200;-61
2021/04/30 05:55:05;;;;;;;7.10;5.30;;;;;;;7.02;66.33;96239.44;5093117;28;20234;-61
2021/04/30 05:57:31;;;;;;;7.73;5.73;;;;;;;7.07;66.18;96229.94;5075208;28;20701;-60
2021/04/30 05:59:56;;;;;;;8.15;5.50;;;;;;;7.11;65.38;96214.66;5063248;28;20174;-61
2021/04/30 06:02:22;;;;;;;9.30;6.37;;;;;;;6.95;66.03;96205.63;5063566;28;20173;-61
2021/04/30 06:04:47;;;;;;;6.63;5.43;;;;;;;6.97;66.16;96205.38;5062779;28;20220;-60
2021/04/30 06:07:13;;;;;;;8.03;5.73;;;;;;;7.16;65.02;96203.59;5048221;28;20173;-60
2021/04/30 06:09:38;;;;;;;7.43;5.87;;;;;;;7.00;65.34;96208.38;5058262;28;20308;-60
2021/04/30 06:12:05;;;;;;;9.47;6.00;;;;;;;7.12;64.35;96200.63;5068720;28;20173;-60
2021/04/30 06:14:32;;;;;;;7.40;5.70;;;;;;;6.98;65.69;96197.38;5063642;28;20580;-60
2021/04/30 06:16:58;;;;;;;7.67;5.40;;;;;;;6.92;66.28;96198.22;5069085;28;20185;-61
2021/04/30 06:19:23;;;;;;;6.93;5.93;;;;;;;6.84;66.47;96190.72;5066588;28;20174;-61
2021/04/30 06:21:49;;;;;;;7.43;5.90;;;;;;;6.96;66.56;96185.59;5069271;28;20744;-61
2021/04/30 06:24:15;;;;;;;9.73;6.30;;;;;;;6.83;66.32;96193.53;5070626;28;20300;-62
2021/04/30 06:26:41;;;;;;;9.07;5.43;;;;;;;6.94;66.00;96187.59;5053264;28;20580;-62
2021/04/30 06:29:08;;;;;;;7.37;5.93;;;;;;;7.09;64.88;96195.84;5054224;28;20204;-62
2021/04/30 06:31:37;;;;;;;8.23;5.80;;;;;;;7.08;65.15;96189.03;5063993;28;20173;-62
2021/04/30 06:34:04;;;;;;;8.13;5.97;;;;;;;7.07;65.69;96187.47;5055814;28;20212;-62
2021/04/30 06:36:30;;;;;;;8.77;6.37;;;;;;;6.77;65.46;96200.41;5060801;28;20544;-61
2021/04/30 06:38:56;;;;;;;7.07;5.83;;;;;;;6.80;66.22;96199.19;5063610;28;20201;-61
2021/04/30 06:41:28;;;;;;;8.00;5.73;;;;;;;6.83;66.37;96202.16;5063831;28;20196;-63
2021/04/30 06:43:54;;;;;;;9.30;6.07;;;;;;;6.92;65.57;96205.25;5045115;28;20207;-62
2021/04/30 06:46:23;;;;;;;10.27;5.70;;;;;;;6.82;65.72;96200.56;5053460;28;20181;-60
2021/04/30 06:48:48;;;;;;;6.47;5.20;;;;;;;6.75;66.10;96196.41;5035461;28;20275;-62
2021/04/30 06:51:14;;;;;;;9.67;6.07;;;;;;;7.04;65.90;96198.31;5054460;28;20174;-62
2021/04/30 06:53:39;;;;;;;7.77;5.77;;;;;;;7.03;65.43;96199.31;5053618;28;20205;-62
2021/04/30 06:56:05;;;;;;;8.90;5.97;;;;;;;7.03;65.33;96205.31;5064227;28;20692;-62
2021/04/30 06:58:30;;;;;;;7.90;5.63;;;;;;;7.08;65.34;96202.84;5080012;28;20711;-60
2021/04/30 07:00:56;;;;;;;6.73;5.13;;;;;;;7.08;65.41;96208.06;5073966;28;20196;-60
2021/04/30 07:03:21;;;;;;;7.93;5.57;;;;;;;6.96;64.82;96215.03;5079116;28;20208;-61
2021/04/30 07:05:48;;;;;;;6.70;5.47;;;;;;;7.09;64.75;96217.47;5084310;28;20226;-61
2021/04/30 07:08:13;;;;;;;8.10;6.20;;;;;;;6.98;65.20;96223.41;5087895;28;20654;-59
2021/04/30 07:10:40;;;;;;;8.70;5.83;;;;;;;7.00;65.52;96208.38;5078019;28;20173;-61
2021/04/30 07:13:10;;;;;;;5.77;5.03;;;;;;;7.06;65.33;96198.91;5086050;28;20204;-57
2021/04/30 07:15:38;;;;;;;6.00;5.40;;;;;;;6.97;65.74;96198.38;5077196;28;20185;-59
2021/04/30 07:18:04;;;;;;;8.27;5.47;;;;;;;6.88;65.58;96186.66;5089039;28;20263;-60
2021/04/30 07:20:31;;;;;;;7.20;5.10;;;;;;;6.91;66.37;96182.84;5077470;28;20192;-60
2021/04/30 07:22:57;;;;;;;6.90;5.40;;;;;;;7.20;65.54;96187.28;5073952;28;20397;-59
2021/04/30 07:25:23;;;;;;;7.17;6.07;;;;;;;7.10;65.74;96182.59;5081805;28;20172;-60
2021/04/30 07:27:48;;;;;;;7.07;5.50;;;;;;;7.17;65.89;96176.50;5075640;28;20541;-57
2021/04/30 07:30:15;;;;;;;8.60;6.10;;;;;;;7.10;66.02;96173.97;5089758;28;20173;-60
2021/04/30 07:32:40;;;;;;;6.70;5.77;;;;;;;6.92;67.06;96182.59;5084353;28;20194;-61
2021/04/30 07:35:06;;;;;;;7.43;5.60;;;;;;;6.91;67.10;96182.84;5085381;28;20173;-60
2021/04/30 07:37:31;;;;;;;10.27;6.07;;;;;;;7.13;66.63;96176.16;5086505;28;20204;-62
2021/04/30 07:39:57;;;;;;;7.20;5.73;;;;;;;7.08;66.85;96181.22;5057612;28;20177;-60
2021/04/30 07:42:22;;;;;;;7.70;6.17;;;;;;;7.23;67.18;96178.25;5083613;28;20735;-61
2021/04/30 07:44:48;;;;;;;8.67;5.80;;;;;;;7.30;66.99;96178.97;5075241;28;20185;-62
2021/04/30 07:47:14;;;;;;;9.07;5.90;;;;;;;7.20;67.25;96169.03;5087949;28;20187;-64
2021/04/30 07:49:41;;;;;;;7.40;6.00;;;;;;;7.46;66.11;96170.53;5058940;28;20191;-62
2021/04/30 07:52:06;;;;;;;7.63;5.80;;;;;;;7.33;66.77;96175.91;5078615;28;20222;-62
2021/04/30 07:54:32;;;;;;;6.83;5.63;;;;;;;7.34;67.08;96175.69;5078515;28;20634;-62
2021/04/30 07:56:58;;;;;;;9.63;6.07;;;;;;;7.42;67.29;96172.75;5083076;28;20362;-62
2021/04/30 07:59:23;;;;;;;8.13;6.20;;;;;;;7.52;66.18;96175.63;5073069;28;20182;-63
2021/04/30 08:01:49;;;;;;;9.27;6.17;;;;;;;7.40;66.65;96174.00;5078462;28;20657;-60
2021/04/30 08:04:14;;;;;;;8.17;6.37;;;;;;;7.34;66.97;96178.28;5071823;28;20558;-64
2021/04/30 08:06:40;;;;;;;7.27;5.60;;;;;;;7.41;67.12;96184.19;5085472;28;20173;-63
2021/04/30 08:09:06;;;;;;;7.37;6.03;;;;;;;7.49;66.92;96190.91;5076281;28;20237;-63
2021/04/30 08:11:34;;;;;;;6.47;5.57;;;;;;;7.62;66.83;96201.19;5093534;28;20557;-63
2021/04/30 08:14:01;;;;;;;8.13;5.53;;;;;;;7.81;66.11;96210.50;5084833;28;20467;-63
2021/04/30 08:16:26;;;;;;;7.07;6.13;;;;;;;7.80;65.90;96214.13;5071945;28;20508;-63
2021/04/30 08:18:52;;;;;;;7.87;5.77;;;;;;;7.88;65.83;96216.44;5072276;28;20176;-63
2021/04/30 08:21:17;;;;;;;8.53;5.63;;;;;;;7.59;66.12;96211.25;5081941;28;20200;-63
2021/04/30 08:23:42;;;;;;;6.97;5.43;;;;;;;7.67;66.55;96213.53;5090444;28;20196;-63
2021/04/30 08:26:08;;;;;;;8.33;6.03;;;;;;;7.42;67.45;96205.84;5079600;28;20177;-63
2021/04/30 08:28:34;;;;;;;6.93;5.77;;;;;;;7.02;68.72;96200.34;5082631;28;20175;-63
2021/04/30 08:30:59;;;;;;;8.50;6.27;;;;;;;7.17;68.68;96205.19;5081300;28;20172;-64
2021/04/30 08:33:26;;;;;;;6.63;5.67;;;;;;;7.19;68.56;96192.75;5078862;28;20677;-64
2021/04/30 08:35:52;;;;;;;7.30;6.37;;;;;;;7.32;68.54;96198.56;5072546;28;20187;-64
2021/04/30 08:38:19;;;;;;;8.13;6.17;;;;;;;6.91;70.32;96193.25;5074605;28;20178;-64
2021/04/30 08:40:44;;;;;;;7.93;6.00;;;;;;;7.17;69.47;96181.72;5062864;28;20196;-64
2021/04/30 08:43:10;;;;;;;7.07;6.20;;;;;;;7.17;69.20;96184.34;5079139;28;20204;-64
2021/04/30 08:45:39;;;;;;;7.73;5.97;;;;;;;7.43;69.38;96181.38;5090410;28;20205;-64
2021/04/30 08:48:11;;;;;;;6.73;5.93;;;;;;;7.46;68.83;96176.53;5076964;28;20178;-64
2021/04/30 08:50:37;;;;;;;7.77;6.00;;;;;;;7.57;69.09;96164.53;5082907;28;20260;-64
2021/04/30 08:53:05;;;;;;;9.33;6.43;;;;;;;7.76;68.15;96158.22;5083191;28;20283;-64
2021/04/30 08:55:32;;;;;;;6.93;6.23;;;;;;;7.78;67.26;96155.41;5085863;28;20184;-64
2021/04/30 08:57:57;;;;;;;7.13;5.60;;;;;;;7.89;67.72;96159.84;5045594;28;20230;-73
2021/04/30 09:00:28;;;;;;;6.60;5.80;;;;;;;8.02;67.32;96159.66;5062392;28;20202;-63
2021/04/30 09:02:55;;;;;;;6.50;5.33;;;;;;;8.06;66.80;96155.56;5070251;28;20224;-62
2021/04/30 09:05:26;;;;;;;6.97;5.73;;;;;;;8.26;66.26;96157.81;5074440;28;20606;-62
2021/04/30 09:07:54;;;;;;;6.67;5.73;;;;;;;8.36;65.51;96158.06;5041390;28;20182;-63
2021/04/30 09:10:21;;;;;;;8.33;5.43;;;;;;;8.69;64.63;96158.25;5063069;28;20162;-62
2021/04/30 09:13:06;;;;;;;7.80;5.53;;;;;;;8.45;64.34;96171.59;5055723;28;20350;-63
2021/04/30 09:15:33;;;;;;;6.33;5.63;;;;;;;8.06;65.84;96179.03;5068076;28;20299;-63
2021/04/30 09:18:19;;;;;;;6.70;5.80;;;;;;;8.13;65.76;96184.16;5056852;28;20162;-64
2021/04/30 09:20:47;;;;;;;8.73;6.30;;;;;;;8.32;65.40;96196.09;5053498;28;20230;-63
2021/04/30 09:23:42;;;;;;;8.93;6.13;;;;;;;8.25;65.35;96205.81;5062537;28;20284;-64
2021/04/30 09:26:31;;;;;;;7.17;5.40;;;;;;;7.96;64.91;96204.91;5065027;28;20177;-63
2021/04/30 09:28:57;;;;;;;8.70;6.27;;;;;;;7.67;66.44;96200.50;5056507;28;20182;-62
2021/04/30 09:31:44;;;;;;;7.07;6.17;;;;;;;7.47;67.71;96198.16;5062779;28;20167;-60
2021/04/30 09:34:25;;;;;;;9.57;5.63;;;;;;;7.64;67.38;96199.13;5069520;28;20197;-64
2021/04/30 09:37:12;;;;;;;7.33;5.83;;;;;;;7.57;67.92;96198.44;5073139;28;20176;-65
2021/04/30 09:39:47;;;;;;;8.13;6.43;;;;;;;7.58;68.07;96186.19;5065815;28;20196;-62
2021/04/30 09:42:17;;;;;;;7.60;5.43;;;;;;;7.66;67.75;96171.03;5067151;28;20209;-64
2021/04/30 09:44:47;;;;;;;7.20;5.53;;;;;;;7.97;66.69;96167.31;5068342;28;20205;-61
2021/04/30 09:47:13;;;;;;;12.07;6.57;;;;;;;7.97;66.17;96180.38;5068782;28;20181;-62
2021/04/30 09:49:44;;;;;;;7.63;6.13;;;;;;;7.93;66.76;96177.44;5064178;28;20181;-63
2021/04/30 09:52:10;;;;;;;8.17;6.10;;;;;;;7.81;67.34;96181.81;5067735;28;20189;-63
2021/04/30 09:54:38;;;;;;;7.70;6.40;;;;;;;7.81;67.71;96167.97;5062723;28;20189;-64
2021/04/30 09:57:07;;;;;;;9.33;6.70;;;;;;;7.71;68.78;96175.56;5086210;28;20673;-63
2021/04/30 09:59:34;;;;;;;8.20;6.63;;;;;;;7.73;68.63;96174.34;5097689;28;20184;-63
2021/04/30 10:02:02;;;;;;;8.93;6.73;;;;;;;7.57;69.62;96180.19;5097522;28;20193;-62
2021/04/30 10:04:31;;;;;;;8.07;6.60;;;;;;;7.25;70.53;96178.81;5098311;28;20204;-62
2021/04/30 10:06:57;;;;;;;8.80;6.73;;;;;;;7.03;71.71;96171.44;5097189;28;20169;-64
2021/04/30 10:09:27;;;;;;;12.27;6.80;;;;;;;7.27;71.63;96171.56;5097580;28;20177;-63
2021/04/30 10:11:53;;;;;;;8.03;6.23;;;;;;;7.20;71.60;96171.66;5096534;28;20222;-62
2021/04/30 10:14:19;;;;;;;9.77;7.60;;;;;;;7.14;73.02;96169.13;5096049;28;20196;-62
2021/04/30 10:16:46;;;;;;;8.77;7.37;;;;;;;7.25;72.40;96169.16;5096970;28;20233;-63
2021/04/30 10:19:12;;;;;;;10.07;6.60;;;;;;;7.14;75.59;96169.13;5097272;28;20177;-62
2021/04/30 10:21:42;;;;;;;9.17;7.07;;;;;;;6.82;76.65;96171.91;5097672;28;20402;-60
2021/04/30 10:24:13;;;;;;;10.17;7.13;;;;;;;6.67;76.62;96174.88;5097202;28;20684;-62
2021/04/30 10:26:44;;;;;;;8.87;7.53;;;;;;;6.68;77.82;96170.47;5097648;28;20188;-62
2021/04/30 10:29:22;;;;;;;10.17;7.43;;;;;;;6.71;79.74;96171.84;5096367;28;20290;-62
2021/04/30 10:31:51;;;;;;;9.60;7.57;;;;;;;6.67;79.85;96174.88;5073900;28;20197;-63
2021/04/30 10:34:25;;;;;;;11.50;7.63;;;;;;;6.74;79.85;96181.84;5088727;28;20203;-62
2021/04/30 10:36:55;;;;;;;10.13;8.27;;;;;;;6.64;80.28;96183.13;5095310;28;20233;-62
2021/04/30 10:39:32;;;;;;;11.13;8.10;;;;;;;6.61;81.30;96186.16;5093050;28;20222;-62
2021/04/30 10:42:07;;;;;;;11.40;8.20;;;;;;;6.50;83.50;96192.09;5097719;28;20615;-62
2021/04/30 10:44:33;;;;;;;13.60;9.13;;;;;;;6.38;85.70;96193.78;5090414;28;20203;-63
2021/04/30 10:47:24;;;;;;;11.80;8.80;;;;;;;6.30;86.89;96208.91;5090729;28;20294;-63
2021/04/30 10:50:11;;;;;;;11.17;9.10;;;;;;;6.43;86.71;96214.78;5081176;28;20283;-61
2021/04/30 10:52:37;;;;;;;14.23;9.80;;;;;;;6.14;87.73;96215.41;5092148;28;20236;-60
2021/04/30 10:55:06;;;;;;;13.90;10.00;;;;;;;6.19;91.52;96218.16;5090994;28;20255;-61
2021/04/30 10:57:46;;;;;;;15.33;10.47;;;;;;;6.16;90.10;96221.22;5089610;28;20242;-61
2021/04/30 11:00:12;;;;;;;14.83;10.23;;;;;;;6.17;91.87;96222.81;5091053;28;20184;-61
2021/04/30 11:02:38;;;;;;;15.57;10.73;;;;;;;5.98;94.49;96228.94;5091679;28;20303;-59
2021/04/30 11:05:07;;;;;;;15.17;11.17;;;;;;;5.86;94.97;96219.19;5090596;28;20345;-60
2021/04/30 11:07:34;;;;;;;15.13;11.10;;;;;;;5.85;97.21;96230.59;5091966;28;20275;-61
2021/04/30 11:10:01;;;;;;;17.97;12.50;;;;;;;5.77;97.88;96233.47;5090666;28;20176;-62
2021/04/30 11:12:27;;;;;;;17.37;13.17;;;;;;;5.57;100.00;96234.59;5070050;28;20178;-62
2021/04/30 11:15:07;;;;;;;19.27;12.90;;;;;;;5.55;100.00;96228.78;5087623;28;20252;-62
2021/04/30 11:17:53;;;;;;;22.60;13.20;;;;;;;5.47;100.00;96216.84;5091795;28;20187;-63
2021/04/30 11:20:21;;;;;;;21.07;13.43;;;;;;;5.25;100.00;96221.53;5069802;28;20189;-61
2021/04/30 11:23:20;;;;;;;20.37;14.37;;;;;;;5.20;100.00;96218.75;5085524;28;20204;-64
2021/04/30 11:25:57;;;;;;;16.73;12.93;;;;;;;5.22;100.00;96221.97;5077050;28;20173;-63
2021/04/30 11:28:35;;;;;;;20.83;14.33;;;;;;;5.10;100.00;96223.59;5091206;28;20176;-62
2021/04/30 11:31:04;;;;;;;17.47;12.87;;;;;;;5.01;100.00;96224.84;5068563;28;20419;-67
2021/04/30 11:33:31;;;;;;;16.93;12.43;;;;;;;4.96;100.00;96216.84;5084365;28;20208;-61
2021/04/30 11:36:00;;;;;;;18.53;13.17;;;;;;;4.84;100.00;96210.72;5089713;28;20180;-62
2021/04/30 11:38:47;;;;;;;17.67;12.97;;;;;;;4.81;100.00;96217.09;5090694;28;20543;-59
2021/04/30 11:41:14;;;;;;;16.57;13.67;;;;;;;4.71;100.00;96214.16;5090440;28;20208;-61